Aéroclub Castres-Mazamet
ACCUEIL




METAR
LFCK 261600Z AUTO 28005KT CAVOK 16/12 Q1025 BECMG BKN014



Liens utiles


F.F.A
Météo France
OLIVIA
SIA
D.G.A.C

Bienvenue à l'aéroclub de Castres-Mazamet


.


               


Actualités

 Petit-déjeuner au Club   
Publié le 11-Oct-2021    
Dimanche 10 octobre, le Club a offert aux adhérents présents le petit déjeuner. L'occasion pour tous de partager de bons moments, et aussi de belles expériences. Une vingtaine de personnes étaient présentes. A renouveler!


 Championnats de France de voltige - Castres 20-28 septembre   
Publié le 15-Aug-2021    
Le Club a accueilli les championnats de France de voltige du 20 au 28 septembre. De bons moments partagés, tant dans les airs, que sur la piste!


 Assemblée Générale   
Publié le 30-Juin-2021    
L'assemblée générale du club a eu lieu le vendredi 25 juin 2021 à l'hôtel Mercure.


 Nouveaux pilotes   
Publié le 05-May-2021    
2 nouveaux pilotes viennent de réussir leurs examens. Il s'agit de >> Adrien Tafanel (ABL+LAPL+PPL) et >> Robin Vidal (PPL) Félicitations à tous les deux !


Voir plus